Time;durP1;ratioP1;P1;durP2;ratioP2;P2;SDS_P1;SDS_P2;PMS_P1;PMS_P2;Temp;Humidity;BMP_temperature;BMP_pressure;BME280_temperature;BME280_humidity;BME280_pressure;Samples;Min_cycle;Max_cycle;Signal;HPM_P1;HPM_P2
2023/08/16 00:01:53;;;;;;;7.20;5.70;;;;;;;22.26;100.00;99711.02;105786;1253;60462;-70
2023/08/16 00:04:20;;;;;;;6.60;5.60;;;;;;;22.21;100.00;99713.42;105824;1252;61975;-71
2023/08/16 00:06:47;;;;;;;7.70;5.30;;;;;;;22.18;100.00;99715.86;105798;1255;73774;-71
2023/08/16 00:09:16;;;;;;;5.10;4.60;;;;;;;22.17;100.00;99718.38;105680;1255;66532;-69
2023/08/16 00:11:42;;;;;;;9.70;5.60;;;;;;;22.15;100.00;99717.70;105691;1257;72474;-70
2023/08/16 00:14:09;;;;;;;7.70;5.80;;;;;;;22.13;100.00;99714.83;105814;1251;60518;-72
2023/08/16 00:16:36;;;;;;;9.30;5.90;;;;;;;22.09;100.00;99712.06;105675;1253;60472;-70
2023/08/16 00:19:02;;;;;;;6.80;5.50;;;;;;;22.07;100.00;99712.07;105874;1257;73606;-72
2023/08/16 00:21:29;;;;;;;6.90;5.70;;;;;;;22.03;100.00;99713.94;105619;1256;67710;-71
2023/08/16 00:23:56;;;;;;;7.90;5.80;;;;;;;22.01;100.00;99713.45;105803;1256;72621;-70
2023/08/16 00:26:22;;;;;;;5.80;5.20;;;;;;;21.99;100.00;99713.77;105673;1256;60353;-69
2023/08/16 00:28:49;;;;;;;6.40;5.70;;;;;;;21.96;100.00;99711.78;105698;1251;60406;-73
2023/08/16 00:31:16;;;;;;;6.00;5.50;;;;;;;21.93;100.00;99711.02;105705;1256;73718;-72
2023/08/16 00:33:42;;;;;;;7.20;5.50;;;;;;;21.89;100.00;99707.02;105801;1255;66399;-70
2023/08/16 00:36:09;;;;;;;6.60;5.80;;;;;;;21.85;100.00;99712.69;105639;1256;72736;-76
2023/08/16 00:38:42;;;;;;;5.60;5.10;;;;;;;21.81;100.00;99710.09;105614;1257;61840;-73
2023/08/16 00:41:12;;;;;;;7.40;5.40;;;;;;;21.77;100.00;99714.35;105908;1255;60724;-70
2023/08/16 00:43:39;;;;;;;6.20;5.50;;;;;;;21.73;100.00;99712.65;105776;1256;73734;-71
2023/08/16 00:46:11;;;;;;;9.50;5.80;;;;;;;21.71;100.00;99716.11;105666;1256;66605;-69
2023/08/16 00:48:42;;;;;;;7.30;5.20;;;;;;;21.68;100.00;99715.45;105581;1256;72671;-70
2023/08/16 00:51:09;;;;;;;7.90;6.10;;;;;;;21.66;100.00;99717.41;105565;1256;60625;-70
2023/08/16 00:53:36;;;;;;;9.00;6.40;;;;;;;21.63;100.00;99722.38;105669;1263;60524;-70
2023/08/16 00:56:03;;;;;;;14.20;5.60;;;;;;;21.60;100.00;99721.16;105614;1258;74459;-71
2023/08/16 00:58:30;;;;;;;6.70;6.00;;;;;;;21.54;100.00;99719.79;105707;1256;67796;-71
2023/08/16 01:00:56;;;;;;;10.10;5.80;;;;;;;21.50;100.00;99719.30;105831;1256;72604;-70
2023/08/16 01:03:24;;;;;;;6.90;5.80;;;;;;;21.47;100.00;99721.46;105651;1255;62077;-70
2023/08/16 01:05:51;;;;;;;6.20;5.30;;;;;;;21.45;100.00;99724.49;105647;1255;60469;-70
2023/08/16 01:08:18;;;;;;;8.10;4.90;;;;;;;21.44;100.00;99723.23;105390;1258;74391;-69
2023/08/16 01:11:04;;;;;;;6.50;5.40;;;;;;;21.42;100.00;99725.71;105554;1255;67978;-71
2023/08/16 01:14:05;;;;;;;7.30;6.10;;;;;;;21.40;100.00;99725.89;105541;1256;73170;-70
2023/08/16 01:16:32;;;;;;;6.10;5.50;;;;;;;21.37;100.00;99725.59;105768;1254;60508;-69
2023/08/16 01:18:59;;;;;;;7.10;5.60;;;;;;;21.34;100.00;99729.00;105654;1255;60416;-70
2023/08/16 01:21:25;;;;;;;6.20;5.60;;;;;;;21.32;100.00;99726.30;105682;1255;74348;-70
2023/08/16 01:24:03;;;;;;;7.10;6.10;;;;;;;21.30;100.00;99728.08;105711;1257;67759;-70
2023/08/16 01:26:35;;;;;;;6.30;5.70;;;;;;;21.27;100.00;99727.91;105575;1256;73508;-69
2023/08/16 01:29:03;;;;;;;5.70;5.00;;;;;;;21.24;100.00;99729.05;105665;1257;60578;-70
2023/08/16 01:31:31;;;;;;;8.70;6.00;;;;;;;21.20;100.00;99728.70;105637;1256;60553;-68
2023/08/16 01:33:59;;;;;;;8.00;6.00;;;;;;;21.15;100.00;99729.98;105885;1256;73832;-70
2023/08/16 01:36:28;;;;;;;7.40;5.80;;;;;;;21.12;100.00;99731.58;105575;1251;67724;-70
2023/08/16 01:38:57;;;;;;;7.10;5.70;;;;;;;21.08;100.00;99728.72;105854;1255;72352;-68
2023/08/16 01:41:26;;;;;;;6.90;5.80;;;;;;;21.05;100.00;99724.96;105575;1251;60481;-70
2023/08/16 01:43:55;;;;;;;9.40;6.50;;;;;;;21.00;100.00;99722.21;105782;1252;60490;-70
2023/08/16 01:46:23;;;;;;;8.60;5.60;;;;;;;20.94;100.00;99718.59;105999;1255;74178;-70
2023/08/16 01:48:49;;;;;;;7.60;5.90;;;;;;;20.88;100.00;99715.48;105829;1251;67752;-70
2023/08/16 01:51:16;;;;;;;6.10;5.40;;;;;;;20.83;100.00;99712.69;105492;1257;72635;-69
2023/08/16 01:53:43;;;;;;;5.40;4.80;;;;;;;20.79;100.00;99710.46;105461;1256;60360;-70
2023/08/16 01:56:09;;;;;;;7.90;6.40;;;;;;;20.76;100.00;99709.92;105669;1251;60492;-70
2023/08/16 01:58:36;;;;;;;11.50;5.90;;;;;;;20.75;100.00;99711.16;105766;1257;73918;-70
2023/08/16 02:01:03;;;;;;;6.80;6.00;;;;;;;20.74;100.00;99711.70;105495;1254;67941;-70
2023/08/16 02:03:33;;;;;;;6.80;6.00;;;;;;;20.76;100.00;99712.00;105743;1256;72543;-70
2023/08/16 02:06:00;;;;;;;14.90;5.80;;;;;;;20.80;100.00;99711.15;105987;1253;61834;-69
2023/08/16 02:08:26;;;;;;;6.90;5.50;;;;;;;20.83;100.00;99709.83;105642;1257;60557;-69
2023/08/16 02:10:53;;;;;;;6.90;5.70;;;;;;;20.82;100.00;99706.51;105772;1258;73781;-69
2023/08/16 02:13:20;;;;;;;8.80;5.80;;;;;;;20.83;100.00;99712.64;105845;1251;67776;-70
2023/08/16 02:15:47;;;;;;;7.90;5.70;;;;;;;20.83;100.00;99712.56;105969;1256;72563;-69
2023/08/16 02:18:15;;;;;;;8.00;6.10;;;;;;;20.79;100.00;99708.58;105610;1255;60524;-70
2023/08/16 02:20:42;;;;;;;8.00;5.50;;;;;;;20.76;100.00;99707.46;105635;1251;60494;-70
2023/08/16 02:23:09;;;;;;;7.40;6.50;;;;;;;20.74;100.00;99710.83;105601;1256;74231;-69
2023/08/16 02:25:35;;;;;;;6.90;5.60;;;;;;;20.75;100.00;99711.27;105756;1254;68342;-71
2023/08/16 02:28:02;;;;;;;8.10;6.50;;;;;;;20.76;100.00;99712.20;105841;1256;72634;-70
2023/08/16 02:30:29;;;;;;;6.80;5.40;;;;;;;20.76;100.00;99714.63;105923;1256;61767;-70
2023/08/16 02:32:56;;;;;;;6.40;5.80;;;;;;;20.80;100.00;99722.30;106014;1255;60786;-71
2023/08/16 02:35:23;;;;;;;8.10;6.00;;;;;;;20.83;100.00;99724.14;105669;1254;73720;-70
2023/08/16 02:37:50;;;;;;;6.80;5.90;;;;;;;20.84;100.00;99726.02;105615;1256;68419;-69
2023/08/16 02:40:18;;;;;;;6.50;6.00;;;;;;;20.82;100.00;99724.94;105726;1256;72565;-69
2023/08/16 02:42:46;;;;;;;9.40;5.90;;;;;;;20.80;100.00;99726.17;105754;1256;60486;-70
2023/08/16 02:45:13;;;;;;;8.50;6.20;;;;;;;20.78;100.00;99727.64;105654;1252;60444;-70
2023/08/16 02:47:40;;;;;;;8.10;6.10;;;;;;;20.79;100.00;99729.02;105839;1257;74629;-70
2023/08/16 02:50:07;;;;;;;6.70;6.00;;;;;;;20.76;100.00;99727.38;105625;1257;66412;-70
2023/08/16 02:52:34;;;;;;;8.60;6.40;;;;;;;20.77;100.00;99731.08;105583;1258;72827;-72
2023/08/16 02:55:01;;;;;;;7.20;5.70;;;;;;;20.80;100.00;99730.62;105722;1253;60439;-73
2023/08/16 02:57:28;;;;;;;5.80;5.30;;;;;;;20.84;100.00;99729.48;105908;1256;60447;-71
2023/08/16 02:59:54;;;;;;;7.90;5.70;;;;;;;20.88;100.00;99726.76;105784;1255;73842;-69
2023/08/16 03:02:21;;;;;;;7.10;6.00;;;;;;;20.88;100.00;99724.83;105691;1251;67894;-69
2023/08/16 03:04:48;;;;;;;6.80;5.80;;;;;;;20.87;100.00;99727.19;105848;1256;73073;-70
2023/08/16 03:07:15;;;;;;;6.70;6.10;;;;;;;20.86;100.00;99729.41;105934;1251;61893;-72
2023/08/16 03:09:41;;;;;;;6.20;5.30;;;;;;;20.82;100.00;99728.02;105955;1251;60396;-69
2023/08/16 03:12:08;;;;;;;6.50;5.80;;;;;;;20.80;100.00;99726.72;105718;1251;73721;-72
2023/08/16 03:14:35;;;;;;;5.90;4.80;;;;;;;20.76;100.00;99726.14;105671;1251;66727;-69
2023/08/16 03:17:01;;;;;;;9.10;6.40;;;;;;;20.75;100.00;99726.58;105658;1256;73268;-71
2023/08/16 03:19:28;;;;;;;6.80;6.10;;;;;;;20.75;100.00;99726.48;105835;1251;60770;-71
2023/08/16 03:21:56;;;;;;;7.20;5.90;;;;;;;20.80;100.00;99724.79;105777;1251;61133;-69
2023/08/16 03:24:24;;;;;;;9.10;6.00;;;;;;;20.89;100.00;99725.83;105672;1255;72630;-69
2023/08/16 03:26:50;;;;;;;6.80;5.60;;;;;;;21.02;100.00;99729.92;105621;1256;67919;-71
2023/08/16 03:29:17;;;;;;;7.60;5.90;;;;;;;21.15;100.00;99731.27;105734;1257;72522;-70
2023/08/16 03:31:46;;;;;;;9.10;5.70;;;;;;;21.32;100.00;99729.08;105618;1251;61804;-69
2023/08/16 03:34:13;;;;;;;6.10;5.30;;;;;;;21.50;100.00;99728.40;105735;1256;60423;-71
2023/08/16 03:36:40;;;;;;;6.70;5.10;;;;;;;21.70;100.00;99726.10;105533;1254;73791;-69
2023/08/16 03:39:07;;;;;;;10.60;5.80;;;;;;;21.85;100.00;99724.23;105595;1251;67778;-70
2023/08/16 03:41:34;;;;;;;7.30;6.20;;;;;;;21.98;100.00;99723.90;105600;1257;72688;-70
2023/08/16 03:44:02;;;;;;;12.90;6.10;;;;;;;22.15;100.00;99723.00;105569;1252;60504;-68
2023/08/16 03:46:29;;;;;;;8.60;5.50;;;;;;;22.31;100.00;99720.84;105717;1254;60447;-71
2023/08/16 03:48:55;;;;;;;8.20;5.80;;;;;;;22.48;100.00;99722.11;105703;1255;72658;-73
2023/08/16 03:51:22;;;;;;;7.10;5.80;;;;;;;22.68;100.00;99721.11;105829;1251;68000;-70
2023/08/16 03:53:49;;;;;;;7.60;5.60;;;;;;;22.89;100.00;99722.91;105758;1256;72589;-70
2023/08/16 03:56:16;;;;;;;6.50;5.60;;;;;;;23.01;100.00;99724.87;105873;1256;60890;-71
2023/08/16 03:58:42;;;;;;;6.30;5.50;;;;;;;23.10;100.00;99723.88;105921;1256;60525;-69
2023/08/16 04:01:09;;;;;;;8.00;6.00;;;;;;;23.21;100.00;99723.90;105644;1252;73527;-69
2023/08/16 04:03:36;;;;;;;6.50;5.30;;;;;;;23.32;100.00;99721.91;105641;1254;68422;-69
2023/08/16 04:06:06;;;;;;;6.00;5.30;;;;;;;23.47;100.00;99720.81;105595;1252;72871;-69
2023/08/16 04:08:33;;;;;;;8.40;5.00;;;;;;;23.64;100.00;99723.15;105654;1256;60465;-70
2023/08/16 04:11:00;;;;;;;9.40;5.20;;;;;;;23.84;100.00;99725.24;105542;1251;60413;-70
2023/08/16 04:13:27;;;;;;;7.20;5.20;;;;;;;24.08;100.00;99731.88;105701;1256;73736;-70
2023/08/16 04:15:54;;;;;;;7.40;5.60;;;;;;;24.35;100.00;99731.44;105844;1253;67991;-70
2023/08/16 04:18:21;;;;;;;7.00;4.90;;;;;;;24.61;100.00;99736.06;105834;1257;72672;-75
2023/08/16 04:20:47;;;;;;;10.20;5.00;;;;;;;24.84;100.00;99733.35;105735;1251;60453;-71
2023/08/16 04:23:14;;;;;;;6.50;5.10;;;;;;;25.01;100.00;99732.10;105900;1251;60479;-72
2023/08/16 04:25:41;;;;;;;5.50;5.00;;;;;;;25.13;100.00;99734.46;105597;1251;73641;-70
2023/08/16 04:28:08;;;;;;;7.70;5.10;;;;;;;25.25;100.00;99739.14;105751;1254;67748;-70
2023/08/16 04:30:35;;;;;;;7.50;5.00;;;;;;;25.35;100.00;99740.42;105808;1250;71352;-71
2023/08/16 04:33:02;;;;;;;8.40;6.40;;;;;;;25.39;100.00;99743.45;105845;1256;60413;-70
2023/08/16 04:35:29;;;;;;;11.40;5.70;;;;;;;25.39;100.00;99741.38;105827;1257;60589;-69
2023/08/16 04:37:56;;;;;;;5.90;4.80;;;;;;;25.31;100.00;99739.58;105733;1251;73623;-72
2023/08/16 04:40:23;;;;;;;5.30;4.80;;;;;;;25.35;100.00;99739.01;105766;1251;67640;-73
2023/08/16 04:42:49;;;;;;;7.90;5.30;;;;;;;25.57;100.00;99737.46;105889;1251;72384;-75
2023/08/16 04:45:16;;;;;;;12.80;5.30;;;;;;;25.93;100.00;99733.50;105809;1252;60531;-74
2023/08/16 04:47:43;;;;;;;7.30;5.60;;;;;;;26.32;100.00;99727.84;105794;1251;60533;-75
2023/08/16 04:50:10;;;;;;;10.00;6.10;;;;;;;26.67;100.00;99732.10;105947;1257;73830;-74
2023/08/16 04:52:37;;;;;;;10.50;5.30;;;;;;;27.04;100.00;99729.41;105912;1251;67864;-73
2023/08/16 04:55:05;;;;;;;12.10;5.80;;;;;;;27.44;100.00;99727.58;105917;1251;72598;-75
2023/08/16 04:57:33;;;;;;;9.70;5.70;;;;;;;27.77;100.00;99725.53;105937;1251;60496;-71
2023/08/16 05:00:00;;;;;;;7.30;5.40;;;;;;;28.01;100.00;99727.02;105733;1252;60531;-68
2023/08/16 05:02:29;;;;;;;5.80;5.10;;;;;;;28.24;100.00;99730.45;105556;1257;73704;-73
2023/08/16 05:04:56;;;;;;;6.50;4.60;;;;;;;28.33;100.00;99737.75;105782;1251;68010;-74
2023/08/16 05:07:22;;;;;;;9.60;4.70;;;;;;;28.19;100.00;99742.56;105927;1251;60491;-73
2023/08/16 05:09:50;;;;;;;8.70;5.40;;;;;;;27.88;100.00;99739.00;106041;1251;60355;-75
2023/08/16 05:12:16;;;;;;;13.50;5.00;;;;;;;27.58;100.00;99739.94;105779;1257;60511;-72
2023/08/16 05:14:43;;;;;;;20.80;6.70;;;;;;;27.29;100.00;99747.39;105606;1257;191293;-72
2023/08/16 05:17:09;;;;;;;14.30;5.80;;;;;;;27.06;100.00;99750.55;105894;1254;67815;-73
2023/08/16 05:19:36;;;;;;;9.60;5.60;;;;;;;26.85;100.00;99751.00;105805;1256;72553;-75
2023/08/16 05:22:02;;;;;;;13.70;6.00;;;;;;;26.66;100.00;99747.55;105848;1253;60440;-73
2023/08/16 05:24:30;;;;;;;11.60;5.70;;;;;;;26.53;100.00;99753.00;105921;1256;60434;-73
2023/08/16 05:26:56;;;;;;;5.80;4.90;;;;;;;26.49;100.00;99753.70;105877;1256;73602;-73
2023/08/16 05:29:23;;;;;;;7.60;5.10;;;;;;;26.49;100.00;99753.10;105975;1251;67702;-73
2023/08/16 05:31:49;;;;;;;8.70;5.20;;;;;;;26.70;100.00;99750.95;106095;1251;72647;-75
2023/08/16 05:34:18;;;;;;;11.10;5.30;;;;;;;27.07;100.00;99753.55;106062;1254;60454;-77
2023/08/16 05:36:49;;;;;;;6.00;5.10;;;;;;;27.48;100.00;99752.61;106021;1251;60437;-75
2023/08/16 05:39:17;;;;;;;6.00;5.20;;;;;;;27.87;100.00;99751.36;108038;1251;72356;-69
2023/08/16 05:41:43;;;;;;;7.00;5.10;;;;;;;28.26;100.00;99748.05;106842;1251;67558;-68
2023/08/16 05:44:12;;;;;;;11.50;4.80;;;;;;;28.67;100.00;99750.84;109330;1251;73246;-68
2023/08/16 05:46:39;;;;;;;6.90;4.90;;;;;;;28.94;100.00;99752.45;109412;1251;58999;-68
2023/08/16 05:49:06;;;;;;;9.00;4.70;;;;;;;29.09;100.00;99751.08;109403;1251;58863;-70
2023/08/16 05:51:33;;;;;;;7.70;5.20;;;;;;;29.30;100.00;99748.83;109443;1251;72609;-70
2023/08/16 05:54:00;;;;;;;9.70;5.00;;;;;;;29.55;100.00;99748.77;109326;1251;68008;-74
2023/08/16 05:56:27;;;;;;;7.20;4.30;;;;;;;29.84;99.69;99748.96;108071;1251;72441;-71
2023/08/16 05:58:54;;;;;;;8.70;5.40;;;;;;;30.15;98.12;99746.27;105798;1250;60390;-64
2023/08/16 06:01:21;;;;;;;6.50;4.80;;;;;;;30.41;96.10;99738.69;105688;1251;60592;-75
2023/08/16 06:03:48;;;;;;;6.90;5.20;;;;;;;30.60;94.54;99738.98;105788;1251;72411;-77
2023/08/16 06:06:14;;;;;;;7.90;4.20;;;;;;;30.72;87.57;99737.23;105826;1251;60495;-75
2023/08/16 06:08:41;;;;;;;10.60;4.40;;;;;;;30.67;84.37;99738.01;105889;1251;72641;-79
2023/08/16 06:11:09;;;;;;;9.10;4.10;;;;;;;30.67;85.52;99734.55;105950;1251;60453;-80
2023/08/16 06:13:36;;;;;;;6.20;4.30;;;;;;;30.92;85.94;99734.98;105853;1252;60406;-80
2023/08/16 06:16:03;;;;;;;5.90;3.70;;;;;;;31.27;83.91;99739.23;105909;1252;73890;-70
2023/08/16 06:18:30;;;;;;;6.80;4.00;;;;;;;31.62;83.95;99730.46;105762;1251;67715;-73
2023/08/16 06:20:57;;;;;;;5.30;4.20;;;;;;;31.94;81.91;99731.19;105904;1257;73239;-72
2023/08/16 06:23:24;;;;;;;5.20;4.40;;;;;;;32.13;81.50;99728.70;105731;1251;60416;-71
2023/08/16 06:25:50;;;;;;;5.40;3.80;;;;;;;32.34;79.98;99730.02;105664;1254;60512;-71
2023/08/16 06:28:17;;;;;;;8.40;3.90;;;;;;;32.64;77.25;99727.80;105794;1255;73720;-69
2023/08/16 06:30:44;;;;;;;7.50;4.60;;;;;;;32.97;75.03;99726.51;105655;1251;67743;-67
2023/08/16 06:33:12;;;;;;;9.10;4.80;;;;;;;33.18;71.45;99728.88;105802;1255;72660;-67
2023/08/16 06:35:39;;;;;;;5.20;4.40;;;;;;;33.32;70.31;99728.30;105780;1251;60419;-69
2023/08/16 06:38:08;;;;;;;6.80;4.40;;;;;;;33.46;69.26;99728.33;105730;1254;60493;-70
2023/08/16 06:40:34;;;;;;;8.10;4.40;;;;;;;33.57;66.50;99728.70;105902;1251;74725;-72
2023/08/16 06:43:01;;;;;;;4.10;3.60;;;;;;;33.64;65.28;99730.89;105743;1251;68137;-72
2023/08/16 06:45:32;;;;;;;8.40;4.50;;;;;;;33.76;65.32;99729.41;105665;1257;72601;-69
2023/08/16 06:48:03;;;;;;;7.10;3.80;;;;;;;33.85;63.18;99731.59;105693;1251;60383;-71
2023/08/16 06:50:30;;;;;;;5.70;3.30;;;;;;;33.92;60.88;99728.98;105793;1251;60501;-69
2023/08/16 06:52:56;;;;;;;7.60;3.80;;;;;;;34.07;61.17;99727.55;105695;1251;74211;-66
2023/08/16 06:55:23;;;;;;;5.80;4.70;;;;;;;34.30;60.44;99725.44;105652;1251;67647;-70
2023/08/16 06:57:50;;;;;;;6.40;4.50;;;;;;;34.56;58.33;99725.92;105808;1251;72758;-70
2023/08/16 07:00:17;;;;;;;6.80;4.00;;;;;;;35.34;55.12;99721.35;105798;1251;60527;-72
2023/08/16 07:02:44;;;;;;;4.40;3.80;;;;;;;36.71;51.75;99714.56;105858;1254;60421;-75
2023/08/16 07:05:12;;;;;;;4.40;3.90;;;;;;;37.81;47.78;99709.63;105901;1255;72840;-78
2023/08/16 07:07:41;;;;;;;5.10;3.30;;;;;;;37.68;44.61;99712.83;105889;1251;68136;-74
2023/08/16 07:10:09;;;;;;;7.00;3.60;;;;;;;37.07;45.18;99710.96;105907;1255;72615;-74
2023/08/16 07:12:35;;;;;;;6.50;4.10;;;;;;;36.69;46.33;99709.76;105982;1251;60601;-71
2023/08/16 07:15:03;;;;;;;5.50;3.50;;;;;;;36.45;47.42;99709.28;105944;1251;60385;-73
2023/08/16 07:17:30;;;;;;;6.30;3.60;;;;;;;36.35;48.67;99711.25;105877;1255;74048;-71
2023/08/16 07:19:56;;;;;;;4.90;3.50;;;;;;;36.32;49.90;99713.27;105841;1251;67845;-73
2023/08/16 07:22:26;;;;;;;7.00;4.00;;;;;;;36.26;49.25;99706.74;105851;1251;72695;-73
2023/08/16 07:24:56;;;;;;;4.00;3.20;;;;;;;36.19;49.63;99708.22;105792;1251;60455;-71
2023/08/16 07:27:24;;;;;;;4.10;3.80;;;;;;;36.19;49.66;99707.56;105737;1251;60400;-74
2023/08/16 07:29:51;;;;;;;7.40;4.20;;;;;;;36.09;49.78;99706.15;105913;1254;73580;-74
2023/08/16 07:32:17;;;;;;;4.40;3.90;;;;;;;36.05;49.99;99703.20;105866;1254;67750;-74
2023/08/16 07:34:44;;;;;;;5.30;4.30;;;;;;;35.87;49.99;99703.86;105851;1254;71410;-73
2023/08/16 07:37:11;;;;;;;6.10;3.90;;;;;;;35.56;51.21;99704.55;105883;1251;60546;-77
2023/08/16 07:39:38;;;;;;;7.50;4.30;;;;;;;35.19;50.26;99709.70;106033;1254;62119;-71
2023/08/16 07:42:06;;;;;;;4.90;4.30;;;;;;;34.69;52.65;99705.98;105739;1254;75856;-70
2023/08/16 07:44:34;;;;;;;6.20;4.10;;;;;;;34.14;53.80;99709.48;105696;1251;68074;-70
2023/08/16 07:47:00;;;;;;;5.80;5.10;;;;;;;33.67;56.35;99716.17;105728;1256;72516;-69
2023/08/16 07:49:27;;;;;;;5.80;3.90;;;;;;;33.20;58.95;99715.65;105704;1255;60463;-73
2023/08/16 07:51:57;;;;;;;4.60;3.80;;;;;;;32.78;61.23;99714.60;105789;1253;60431;-69
2023/08/16 07:54:24;;;;;;;7.00;3.90;;;;;;;32.36;64.43;99713.18;105765;1254;73799;-68
2023/08/16 07:56:52;;;;;;;4.80;4.20;;;;;;;32.04;67.35;99714.78;105616;1251;67972;-71
2023/08/16 07:59:19;;;;;;;4.90;3.70;;;;;;;31.87;70.91;99711.19;105941;1251;72556;-69
2023/08/16 08:01:46;;;;;;;5.40;3.90;;;;;;;31.85;74.78;99710.61;105578;1251;60903;-70
2023/08/16 08:04:13;;;;;;;10.80;4.90;;;;;;;31.90;78.68;99706.98;105875;1251;60399;-72
2023/08/16 08:06:40;;;;;;;6.40;3.50;;;;;;;31.96;78.35;99707.88;105566;1254;74313;-72
2023/08/16 08:09:06;;;;;;;4.50;2.90;;;;;;;31.91;74.55;99708.46;105695;1251;67797;-69
2023/08/16 08:11:33;;;;;;;5.10;2.70;;;;;;;31.82;72.37;99708.52;105614;1256;73192;-75
2023/08/16 08:14:00;;;;;;;3.80;3.20;;;;;;;31.59;70.59;99712.58;105565;1251;60826;-79
2023/08/16 08:16:26;;;;;;;4.50;3.00;;;;;;;31.33;67.38;99708.05;106059;1254;60523;-73
2023/08/16 08:18:53;;;;;;;6.90;3.60;;;;;;;31.05;69.42;99711.53;105519;1252;73852;-75
2023/08/16 08:21:20;;;;;;;4.90;3.40;;;;;;;30.79;72.72;99709.61;106030;1251;60530;-73
2023/08/16 08:23:46;;;;;;;4.60;3.50;;;;;;;30.63;76.82;99709.14;106006;1254;72697;-72
2023/08/16 08:26:13;;;;;;;7.50;4.20;;;;;;;30.61;79.64;99710.91;105578;1251;60433;-73
2023/08/16 08:28:40;;;;;;;4.20;3.40;;;;;;;30.68;81.61;99712.20;105977;1251;60485;-73
2023/08/16 08:31:06;;;;;;;3.40;3.10;;;;;;;30.77;80.96;99712.50;105902;1253;73842;-73
2023/08/16 08:33:33;;;;;;;4.40;3.70;;;;;;;30.89;79.96;99714.24;105862;1251;67647;-73
2023/08/16 08:36:00;;;;;;;3.70;3.30;;;;;;;31.17;78.86;99714.27;105922;1252;72443;-75
2023/08/16 08:38:27;;;;;;;4.90;3.10;;;;;;;31.46;77.57;99712.70;105824;1255;60531;-74
2023/08/16 08:40:57;;;;;;;3.70;2.80;;;;;;;31.68;74.73;99716.92;105852;1250;60520;-72
2023/08/16 08:43:28;;;;;;;7.30;3.00;;;;;;;31.81;71.44;99713.30;105859;1256;73784;-73
2023/08/16 08:45:57;;;;;;;4.20;3.00;;;;;;;31.84;70.89;99715.25;105857;1251;67722;-72
2023/08/16 08:48:25;;;;;;;8.60;2.70;;;;;;;31.85;73.26;99714.73;105926;1253;72322;-71
2023/08/16 08:50:53;;;;;;;3.30;2.80;;;;;;;31.99;73.66;99712.39;105862;1256;60410;-72
2023/08/16 08:53:26;;;;;;;4.40;3.10;;;;;;;32.35;74.39;99714.15;105975;1253;60428;-75
2023/08/16 08:55:55;;;;;;;3.90;2.90;;;;;;;32.83;72.03;99716.69;105945;1256;73669;-73
2023/08/16 08:58:23;;;;;;;3.70;2.70;;;;;;;33.29;64.09;99722.86;105918;1255;66713;-72
2023/08/16 09:00:49;;;;;;;5.30;2.70;;;;;;;33.65;61.32;99726.48;105954;1253;71491;-70
2023/08/16 09:03:17;;;;;;;10.10;3.60;;;;;;;33.99;59.97;99722.92;105549;1251;60646;-70
2023/08/16 09:05:45;;;;;;;4.20;2.70;;;;;;;34.33;57.42;99721.96;105669;1251;60445;-72
2023/08/16 09:08:13;;;;;;;5.00;3.10;;;;;;;34.67;56.84;99715.98;105753;1256;74474;-70
2023/08/16 09:10:41;;;;;;;5.00;2.60;;;;;;;35.03;52.94;99723.66;105694;1251;68171;-71
2023/08/16 09:13:10;;;;;;;3.20;2.60;;;;;;;35.19;48.77;99718.42;105735;1252;72569;-69
2023/08/16 09:15:37;;;;;;;3.10;2.70;;;;;;;35.29;47.99;99712.23;105613;1251;60447;-70
2023/08/16 09:18:14;;;;;;;4.90;3.00;;;;;;;35.53;48.39;99707.81;107855;1251;60415;-71
2023/08/16 09:20:44;;;;;;;3.70;2.70;;;;;;;35.74;48.82;99717.21;105697;1254;74385;-70
2023/08/16 09:23:14;;;;;;;3.50;3.20;;;;;;;35.91;45.94;99718.48;105616;1251;69014;-68
2023/08/16 09:25:41;;;;;;;3.40;3.10;;;;;;;35.85;44.07;99716.83;105522;1256;73207;-72
2023/08/16 09:28:12;;;;;;;3.40;3.10;;;;;;;35.71;43.94;99710.11;105993;1253;60432;-68
2023/08/16 09:30:38;;;;;;;8.20;3.10;;;;;;;35.56;45.00;99712.89;105713;1251;60802;-72
2023/08/16 09:33:05;;;;;;;4.70;2.90;;;;;;;35.55;47.68;99711.17;105583;1254;74769;-71
2023/08/16 09:35:33;;;;;;;5.60;3.10;;;;;;;35.69;46.78;99708.30;105590;1256;68404;-71
2023/08/16 09:38:03;;;;;;;3.20;2.90;;;;;;;35.78;47.26;99708.99;105998;1251;72739;-72
2023/08/16 09:40:51;;;;;;;3.70;3.10;;;;;;;35.99;47.00;99707.68;105897;1255;60528;-73
2023/08/16 09:43:18;;;;;;;3.20;2.90;;;;;;;36.12;47.15;99706.95;105915;1251;60434;-72
2023/08/16 09:45:49;;;;;;;2.70;2.50;;;;;;;36.34;46.64;99703.27;105727;1253;73882;-72
2023/08/16 09:48:15;;;;;;;6.20;4.00;;;;;;;36.48;44.69;99707.28;105680;1251;68004;-73
2023/08/16 09:50:42;;;;;;;3.30;3.00;;;;;;;36.71;45.06;99700.97;105860;1254;73059;-70
2023/08/16 09:53:12;;;;;;;4.50;2.70;;;;;;;37.57;43.97;99705.85;105677;1255;60342;-69
2023/08/16 09:55:44;;;;;;;4.00;3.30;;;;;;;38.61;40.35;99702.91;105691;1257;60790;-66
2023/08/16 09:58:12;;;;;;;3.00;2.70;;;;;;;39.57;37.99;99698.10;105692;1254;74333;-68
2023/08/16 10:00:39;;;;;;;3.20;2.90;;;;;;;40.47;36.46;99697.61;105816;1251;68405;-69
2023/08/16 10:03:08;;;;;;;5.00;2.70;;;;;;;41.18;34.83;99695.84;105705;1253;72578;-70
2023/08/16 10:05:36;;;;;;;3.50;2.80;;;;;;;41.78;33.08;99703.20;105636;1254;60466;-72
2023/08/16 10:08:06;;;;;;;2.60;2.40;;;;;;;42.15;31.46;99701.56;105895;1254;60483;-72
2023/08/16 10:10:33;;;;;;;4.90;2.70;;;;;;;42.27;30.41;99697.05;105706;1257;73853;-69
2023/08/16 10:13:01;;;;;;;3.90;3.00;;;;;;;42.54;29.67;99695.92;105542;1251;67867;-72
2023/08/16 10:15:32;;;;;;;7.30;3.00;;;;;;;42.49;29.73;99695.45;105716;1254;72458;-73
2023/08/16 10:18:02;;;;;;;4.10;3.20;;;;;;;42.49;29.13;99700.83;105922;1251;60339;-72
2023/08/16 10:20:32;;;;;;;2.70;2.50;;;;;;;41.92;28.89;99701.15;105839;1251;60450;-72
2023/08/16 10:23:01;;;;;;;4.10;2.60;;;;;;;41.35;30.06;99706.46;106011;1254;73746;-74
2023/08/16 10:25:49;;;;;;;2.80;2.60;;;;;;;40.90;30.01;99713.17;105879;1251;67940;-75
2023/08/16 10:28:18;;;;;;;2.80;2.60;;;;;;;40.23;30.04;99704.52;105932;1251;72570;-74
2023/08/16 10:30:47;;;;;;;5.20;2.80;;;;;;;39.62;30.49;99709.30;105846;1251;60463;-73
2023/08/16 10:33:39;;;;;;;2.60;2.30;;;;;;;39.02;31.58;99709.89;105779;1251;60422;-72
2023/08/16 10:36:06;;;;;;;5.40;2.70;;;;;;;38.59;31.89;99713.56;105928;1251;73691;-69
2023/08/16 10:38:41;;;;;;;5.30;2.20;;;;;;;38.00;32.57;99712.81;105821;1251;67948;-70
2023/08/16 10:41:14;;;;;;;;;;;;;;;37.45;33.17;99715.90;105816;1251;70511;-68
2023/08/16 10:43:46;;;;;;;4.70;2.50;;;;;;;37.27;34.08;99712.67;105767;1254;60530;-69
2023/08/16 10:46:34;;;;;;;2.50;2.40;;;;;;;37.52;34.27;99716.85;105689;1251;60425;-68
2023/08/16 10:49:02;;;;;;;6.10;2.30;;;;;;;37.76;34.40;99709.98;105751;1256;73224;-68
2023/08/16 10:51:30;;;;;;;5.50;2.70;;;;;;;37.77;34.53;99706.63;105821;1256;67909;-70
2023/08/16 10:53:57;;;;;;;2.70;2.50;;;;;;;37.68;34.89;99704.50;105661;1256;72689;-69
2023/08/16 10:56:24;;;;;;;2.50;2.30;;;;;;;37.64;34.93;99702.13;105759;1251;60482;-69
2023/08/16 10:58:51;;;;;;;4.50;2.40;;;;;;;37.43;35.15;99709.30;105745;1251;60446;-68
2023/08/16 11:01:18;;;;;;;2.80;2.20;;;;;;;37.11;34.64;99708.36;105648;1254;74150;-70
2023/08/16 11:03:48;;;;;;;3.70;2.70;;;;;;;36.43;35.66;99709.90;105752;1251;66935;-70
2023/08/16 11:06:15;;;;;;;4.10;2.90;;;;;;;35.68;36.61;99706.44;105657;1252;72732;-68
2023/08/16 11:08:43;;;;;;;4.80;2.60;;;;;;;35.10;38.03;99708.24;105492;1251;60515;-68
2023/08/16 11:11:13;;;;;;;4.20;2.50;;;;;;;34.69;39.41;99708.48;109402;1251;59295;-68
2023/08/16 11:13:41;;;;;;;3.20;2.90;;;;;;;34.35;39.96;99706.34;109475;1251;74090;-69
2023/08/16 11:16:11;;;;;;;3.00;2.70;;;;;;;34.05;40.73;99705.81;109510;1251;67879;-69
2023/08/16 11:18:41;;;;;;;3.20;2.70;;;;;;;33.83;42.20;99700.91;109452;1251;72534;-69
2023/08/16 11:21:14;;;;;;;3.20;2.90;;;;;;;33.67;43.86;99700.84;108517;1250;60451;-69
2023/08/16 11:23:41;;;;;;;3.00;2.60;;;;;;;33.54;44.90;99696.34;105538;1251;60487;-69
2023/08/16 11:26:08;;;;;;;3.00;2.70;;;;;;;33.42;46.06;99697.05;105634;1254;73680;-68